createdAt,value
2018-09-27T00:00:26.927Z,7.00
2018-09-27T00:02:55.255Z,4.73
2018-09-27T00:05:23.568Z,5.27
2018-09-27T00:07:51.928Z,6.37
2018-09-27T00:10:20.242Z,6.53
2018-09-27T00:12:48.594Z,6.73
2018-09-27T00:15:16.899Z,6.80
2018-09-27T00:17:45.223Z,7.23
2018-09-27T00:20:13.558Z,6.77
2018-09-27T00:22:42.222Z,6.80
2018-09-27T00:25:10.533Z,5.57
2018-09-27T00:27:38.878Z,6.97
2018-09-27T00:30:07.239Z,9.90
2018-09-27T00:32:35.571Z,5.37
2018-09-27T00:35:03.916Z,7.73
2018-09-27T00:37:32.219Z,5.43
2018-09-27T00:40:00.593Z,6.23
2018-09-27T00:42:28.907Z,6.20
2018-09-27T00:44:57.241Z,7.07
2018-09-27T00:47:25.588Z,5.13
2018-09-27T00:49:53.923Z,8.87
2018-09-27T00:52:22.220Z,8.43
2018-09-27T00:54:50.547Z,8.03
2018-09-27T00:57:18.855Z,9.17
2018-09-27T00:59:47.232Z,10.03
2018-09-27T01:02:15.544Z,6.67
2018-09-27T01:04:43.860Z,6.07
2018-09-27T01:07:12.246Z,7.40
2018-09-27T01:09:40.591Z,6.00
2018-09-27T01:12:08.926Z,6.90
2018-09-27T01:14:37.245Z,7.27
2018-09-27T01:17:05.538Z,6.60
2018-09-27T01:19:34.051Z,7.40
2018-09-27T01:22:02.355Z,6.00
2018-09-27T01:24:30.679Z,6.30
2018-09-27T01:26:58.983Z,7.90
2018-09-27T01:29:27.300Z,5.40
2018-09-27T01:31:55.594Z,6.13
2018-09-27T01:34:24.086Z,5.93
2018-09-27T01:36:52.395Z,9.83
2018-09-27T01:39:20.743Z,6.33
2018-09-27T01:41:49.221Z,8.17
2018-09-27T01:44:17.598Z,8.53
2018-09-27T01:46:45.915Z,9.73
2018-09-27T01:49:14.246Z,8.20
2018-09-27T01:51:42.583Z,9.23
2018-09-27T01:54:10.931Z,6.87
2018-09-27T01:56:39.235Z,7.17
2018-09-27T01:59:07.634Z,7.10
2018-09-27T02:01:35.954Z,8.40
2018-09-27T02:04:04.307Z,7.37
2018-09-27T02:06:32.627Z,5.63
2018-09-27T02:09:00.961Z,6.87
2018-09-27T02:11:29.262Z,10.17
2018-09-27T02:13:57.600Z,7.57
2018-09-27T02:16:25.900Z,8.47
2018-09-27T02:18:54.231Z,10.07
2018-09-27T02:21:22.627Z,11.40
2018-09-27T02:23:50.991Z,8.20
2018-09-27T02:26:19.284Z,7.87
2018-09-27T02:28:47.628Z,9.40
2018-09-27T02:31:15.962Z,9.57
2018-09-27T02:33:44.367Z,9.90
2018-09-27T02:36:12.720Z,8.40
2018-09-27T02:38:41.079Z,10.10
2018-09-27T02:41:09.440Z,11.33
2018-09-27T02:43:37.823Z,9.43
2018-09-27T02:46:06.188Z,11.57
2018-09-27T02:48:34.523Z,9.03
2018-09-27T02:51:02.880Z,9.20
2018-09-27T02:53:31.222Z,9.27
2018-09-27T02:55:59.578Z,7.97
2018-09-27T02:58:27.910Z,8.90
2018-09-27T03:00:56.432Z,9.27
2018-09-27T03:03:24.769Z,8.43
2018-09-27T03:05:53.124Z,9.77
2018-09-27T03:08:21.460Z,9.27
2018-09-27T03:10:49.824Z,11.03
2018-09-27T03:13:18.181Z,10.40
2018-09-27T03:15:46.562Z,8.37
2018-09-27T03:18:15.169Z,10.10
2018-09-27T03:20:43.568Z,8.57
2018-09-27T03:23:11.917Z,7.13
2018-09-27T03:25:40.281Z,8.43
2018-09-27T03:28:08.616Z,8.73
2018-09-27T03:30:36.991Z,11.83
2018-09-27T03:33:05.341Z,11.97
2018-09-27T03:35:33.863Z,8.90
2018-09-27T03:38:02.197Z,8.87
2018-09-27T03:40:30.585Z,6.97
2018-09-27T03:42:58.934Z,7.57
2018-09-27T03:45:27.309Z,7.97
2018-09-27T03:47:55.663Z,9.07
2018-09-27T03:50:24.015Z,10.27
2018-09-27T03:52:52.354Z,6.87
2018-09-27T03:55:20.729Z,7.37
2018-09-27T03:57:49.085Z,9.03
2018-09-27T04:00:17.447Z,10.03
2018-09-27T04:02:45.902Z,8.87
2018-09-27T04:05:15.147Z,11.33
2018-09-27T04:07:43.630Z,10.17
2018-09-27T04:10:11.988Z,10.33
2018-09-27T04:12:40.394Z,12.83
2018-09-27T04:15:08.787Z,8.47
2018-09-27T04:17:37.130Z,7.93
2018-09-27T04:20:06.036Z,11.47
2018-09-27T04:22:34.359Z,9.13
2018-09-27T04:25:02.900Z,11.07
2018-09-27T04:27:31.304Z,8.63
2018-09-27T04:29:59.755Z,11.57
2018-09-27T04:32:28.109Z,9.60
2018-09-27T04:34:56.476Z,12.17
2018-09-27T04:37:24.840Z,10.40
2018-09-27T04:39:53.244Z,8.23
2018-09-27T04:42:21.570Z,9.93
2018-09-27T04:44:49.917Z,8.03
2018-09-27T04:47:18.281Z,10.27
2018-09-27T04:49:46.631Z,12.10
2018-09-27T04:52:15.056Z,9.93
2018-09-27T04:54:43.391Z,11.77
2018-09-27T04:57:11.792Z,9.70
2018-09-27T04:59:40.227Z,9.47
2018-09-27T05:02:08.615Z,11.57
2018-09-27T05:04:36.957Z,8.80
2018-09-27T05:07:05.319Z,11.17
2018-09-27T05:09:33.701Z,11.20
2018-09-27T05:12:02.047Z,9.93
2018-09-27T05:14:30.387Z,10.23
2018-09-27T05:16:58.774Z,12.13
2018-09-27T05:19:27.116Z,9.97
2018-09-27T05:21:55.483Z,8.77
2018-09-27T05:24:23.919Z,8.70
2018-09-27T05:26:52.447Z,10.60
2018-09-27T05:29:20.796Z,12.73
2018-09-27T05:31:49.164Z,9.50
2018-09-27T05:34:17.510Z,11.13
2018-09-27T05:36:45.872Z,10.50
2018-09-27T05:39:14.219Z,11.07
2018-09-27T05:41:42.693Z,10.53
2018-09-27T05:44:11.036Z,10.17
2018-09-27T05:46:39.673Z,12.17
2018-09-27T05:49:08.109Z,11.07
2018-09-27T05:51:36.512Z,9.90
2018-09-27T05:54:04.866Z,10.60
2018-09-27T05:56:33.236Z,11.33
2018-09-27T05:59:01.600Z,13.17
2018-09-27T06:01:30.004Z,10.03
2018-09-27T06:03:58.402Z,11.53
2018-09-27T06:06:29.342Z,12.23
2018-09-27T06:08:58.572Z,9.70
2018-09-27T06:11:27.121Z,8.03
2018-09-27T06:13:55.471Z,8.70
2018-09-27T06:16:23.875Z,8.97
2018-09-27T06:18:54.508Z,10.93
2018-09-27T06:21:22.942Z,10.67
2018-09-27T06:23:51.383Z,11.27
2018-09-27T06:26:19.741Z,8.67
2018-09-27T06:28:48.121Z,9.60
2018-09-27T06:31:16.463Z,8.83
2018-09-27T06:33:44.831Z,9.83
2018-09-27T06:36:13.178Z,8.43
2018-09-27T06:38:41.590Z,8.97
2018-09-27T06:41:10.056Z,10.53
2018-09-27T06:43:38.524Z,10.47
2018-09-27T06:46:07.142Z,10.57
2018-09-27T06:48:35.589Z,9.20
2018-09-27T06:51:03.926Z,10.90
2018-09-27T06:53:32.283Z,14.60
2018-09-27T06:56:00.747Z,10.23
2018-09-27T06:58:29.050Z,10.27
2018-09-27T07:00:57.482Z,8.83
2018-09-27T07:03:25.924Z,11.23
2018-09-27T07:05:54.310Z,11.03
2018-09-27T07:08:22.687Z,11.90
2018-09-27T07:10:51.158Z,9.40
2018-09-27T07:13:19.663Z,12.77
2018-09-27T07:15:48.032Z,11.10
2018-09-27T07:18:16.382Z,9.93
2018-09-27T07:20:44.741Z,12.00
2018-09-27T07:23:13.128Z,12.20
2018-09-27T07:25:42.090Z,10.47
2018-09-27T07:28:10.565Z,10.77
2018-09-27T07:30:38.966Z,11.10
2018-09-27T07:33:07.324Z,10.87
2018-09-27T07:35:35.735Z,8.83
2018-09-27T07:38:04.108Z,11.33
2018-09-27T07:40:32.467Z,10.83
2018-09-27T07:43:00.845Z,10.20
2018-09-27T07:45:29.204Z,11.53
2018-09-27T07:47:57.640Z,11.30
2018-09-27T07:50:26.076Z,10.20
2018-09-27T07:52:54.514Z,10.13
2018-09-27T07:55:22.855Z,12.40
2018-09-27T07:57:51.255Z,9.37
2018-09-27T08:00:19.604Z,10.93
2018-09-27T08:02:47.982Z,12.77
2018-09-27T08:05:16.361Z,12.70
2018-09-27T08:07:44.719Z,11.67
2018-09-27T08:10:13.093Z,9.23
2018-09-27T08:12:41.460Z,12.03
2018-09-27T08:15:09.991Z,10.83
2018-09-27T08:17:38.353Z,14.70
2018-09-27T08:20:06.836Z,10.87
2018-09-27T08:22:35.632Z,10.07
2018-09-27T08:25:04.024Z,11.37
2018-09-27T08:27:32.448Z,13.80
2018-09-27T08:30:00.811Z,9.93
2018-09-27T08:32:29.200Z,11.33
2018-09-27T08:34:57.549Z,10.17
2018-09-27T08:37:25.968Z,11.93
2018-09-27T08:39:54.367Z,12.20
2018-09-27T08:42:22.723Z,12.97
2018-09-27T08:44:51.285Z,11.00
2018-09-27T08:47:19.522Z,9.90
2018-09-27T08:49:48.020Z,15.53
2018-09-27T08:52:16.375Z,9.87
2018-09-27T08:54:44.802Z,11.40
2018-09-27T08:57:13.247Z,11.50
2018-09-27T08:59:41.633Z,11.67
2018-09-27T09:02:10.112Z,14.03
2018-09-27T09:04:38.488Z,14.50
2018-09-27T09:07:06.655Z,13.63
2018-09-27T09:09:35.132Z,11.03
2018-09-27T09:12:03.611Z,12.43
2018-09-27T09:14:32.089Z,14.80
2018-09-27T09:17:00.623Z,14.07
2018-09-27T09:19:28.982Z,12.57
2018-09-27T09:21:57.331Z,13.70
2018-09-27T09:24:27.461Z,12.30
2018-09-27T09:26:55.805Z,13.00
2018-09-27T09:29:24.263Z,12.00
2018-09-27T09:31:52.688Z,11.00
2018-09-27T09:34:21.055Z,14.00
2018-09-27T09:36:49.395Z,14.10
2018-09-27T09:39:18.084Z,16.40
2018-09-27T09:41:46.541Z,12.97
2018-09-27T09:44:14.928Z,11.43
2018-09-27T09:46:43.286Z,12.30
2018-09-27T09:49:11.648Z,14.77
2018-09-27T09:51:40.002Z,12.13
2018-09-27T09:54:08.367Z,13.53
2018-09-27T09:56:36.760Z,13.50
2018-09-27T09:59:05.202Z,11.00
2018-09-27T10:01:33.551Z,11.60
2018-09-27T10:04:01.984Z,11.83
2018-09-27T10:06:30.359Z,12.77
2018-09-27T10:08:58.744Z,10.30
2018-09-27T10:11:27.099Z,11.40
2018-09-27T10:13:55.482Z,11.57
2018-09-27T10:16:23.858Z,13.33
2018-09-27T10:18:52.205Z,10.43
2018-09-27T10:21:20.603Z,9.30
2018-09-27T10:23:48.967Z,10.20
2018-09-27T10:26:17.377Z,8.80
2018-09-27T10:28:45.781Z,9.20
2018-09-27T10:31:14.208Z,10.97
2018-09-27T10:33:42.600Z,10.37
2018-09-27T10:36:10.962Z,6.40
2018-09-27T10:38:39.419Z,7.63
2018-09-27T10:41:08.184Z,8.40
2018-09-27T10:43:36.639Z,7.47
2018-09-27T10:46:05.215Z,7.50
2018-09-27T10:48:33.633Z,6.43
2018-09-27T10:51:02.239Z,6.27
2018-09-27T10:53:30.634Z,5.70
2018-09-27T10:55:59.011Z,4.17
2018-09-27T10:58:27.463Z,6.63
2018-09-27T11:00:55.841Z,5.07
2018-09-27T11:03:24.238Z,4.37
2018-09-27T11:05:52.603Z,5.97
2018-09-27T11:08:20.960Z,4.73
2018-09-27T11:10:49.347Z,4.17
2018-09-27T11:13:17.739Z,4.40
2018-09-27T11:15:46.112Z,5.10
2018-09-27T11:18:14.480Z,5.73
2018-09-27T11:20:42.863Z,5.43
2018-09-27T11:23:11.227Z,6.30
2018-09-27T11:25:40.865Z,5.20
2018-09-27T11:28:09.386Z,4.73
2018-09-27T11:30:37.735Z,5.10
2018-09-27T11:33:06.185Z,5.07
2018-09-27T11:35:34.528Z,4.43
2018-09-27T11:38:02.891Z,5.70
2018-09-27T11:40:31.295Z,5.87
2018-09-27T11:42:59.637Z,5.97
2018-09-27T11:45:27.991Z,4.77
2018-09-27T11:47:56.364Z,3.90
2018-09-27T11:50:24.716Z,4.93
2018-09-27T11:52:53.083Z,4.20
2018-09-27T11:55:21.447Z,4.13
2018-09-27T11:57:49.821Z,4.17
2018-09-27T12:00:18.175Z,4.00
2018-09-27T12:02:46.572Z,6.33
2018-09-27T12:05:14.952Z,3.87
2018-09-27T12:07:43.426Z,6.10
2018-09-27T12:10:11.727Z,3.07
2018-09-27T12:12:40.105Z,6.33
2018-09-27T12:15:08.630Z,3.83
2018-09-27T12:17:37.047Z,5.77
2018-09-27T12:20:05.572Z,2.67
2018-09-27T12:22:33.900Z,3.47
2018-09-27T12:25:02.248Z,3.97
2018-09-27T12:27:30.668Z,5.23
2018-09-27T12:29:59.013Z,3.77
2018-09-27T12:32:27.441Z,3.13
2018-09-27T12:34:55.785Z,6.50
2018-09-27T12:37:24.156Z,3.67
2018-09-27T12:39:52.515Z,4.83
2018-09-27T12:42:20.912Z,5.03
2018-09-27T12:44:49.278Z,4.87
2018-09-27T12:47:17.627Z,5.60
2018-09-27T12:49:46.043Z,4.40
2018-09-27T12:52:14.774Z,6.13
2018-09-27T12:54:42.779Z,4.57
2018-09-27T12:57:11.161Z,6.87
2018-09-27T12:59:39.521Z,4.43
2018-09-27T13:02:07.961Z,5.67
2018-09-27T13:04:36.263Z,6.70
2018-09-27T13:07:04.790Z,6.17
2018-09-27T13:09:33.163Z,5.00
2018-09-27T13:12:01.622Z,4.73
2018-09-27T13:14:30.397Z,4.80
2018-09-27T13:16:58.758Z,5.23
2018-09-27T13:19:27.140Z,5.33
2018-09-27T13:21:55.487Z,3.83
2018-09-27T13:24:24.509Z,6.33
2018-09-27T13:26:52.889Z,5.40
2018-09-27T13:29:21.248Z,4.10
2018-09-27T13:31:49.661Z,4.50
2018-09-27T13:34:17.999Z,5.27
2018-09-27T13:36:46.385Z,4.70
2018-09-27T13:39:14.739Z,3.80
2018-09-27T13:41:43.075Z,4.03
2018-09-27T13:44:11.432Z,5.77
2018-09-27T13:46:39.793Z,4.33
2018-09-27T13:49:08.229Z,3.55
2018-09-27T13:51:36.532Z,6.72
2018-09-27T13:54:04.927Z,3.62
2018-09-27T13:56:33.268Z,3.35
2018-09-27T13:59:01.641Z,3.47
2018-09-27T14:01:29.988Z,4.33
2018-09-27T14:03:58.346Z,4.30
2018-09-27T14:06:26.688Z,5.37
2018-09-27T14:08:55.211Z,6.03
2018-09-27T14:11:23.555Z,4.62
2018-09-27T14:13:52.059Z,4.60
2018-09-27T14:16:20.408Z,3.95
2018-09-27T14:18:48.866Z,5.47
2018-09-27T14:21:17.233Z,5.58
2018-09-27T14:23:45.610Z,4.62
2018-09-27T14:26:13.997Z,4.78
2018-09-27T14:28:42.352Z,5.58
2018-09-27T14:31:10.712Z,4.92
2018-09-27T14:33:39.082Z,6.17
2018-09-27T14:36:07.420Z,4.15
2018-09-27T14:38:35.871Z,6.25
2018-09-27T14:41:04.260Z,4.10
2018-09-27T14:43:32.583Z,4.67
2018-09-27T14:46:00.936Z,4.95
2018-09-27T14:48:29.304Z,6.45
2018-09-27T14:50:57.665Z,8.00
2018-09-27T14:53:26.070Z,7.05
2018-09-27T14:55:54.413Z,4.58
2018-09-27T14:58:22.792Z,5.12
2018-09-27T15:00:51.134Z,10.78
2018-09-27T15:03:19.504Z,9.13
2018-09-27T15:05:47.853Z,5.35
2018-09-27T15:08:16.211Z,12.73
2018-09-27T15:10:45.694Z,5.33
2018-09-27T15:13:14.003Z,7.80
2018-09-27T15:15:42.421Z,5.72
2018-09-27T15:18:10.767Z,6.85
2018-09-27T15:20:39.135Z,4.72
2018-09-27T15:23:07.585Z,5.53
2018-09-27T15:25:35.964Z,4.53
2018-09-27T15:28:04.399Z,4.40
2018-09-27T15:30:32.820Z,11.55
2018-09-27T15:33:01.158Z,5.00
2018-09-27T15:35:29.692Z,5.03
2018-09-27T15:37:58.027Z,6.00
2018-09-27T15:40:26.396Z,5.75
2018-09-27T15:42:54.748Z,5.35
2018-09-27T15:45:23.119Z,4.78
2018-09-27T15:47:51.491Z,5.53
2018-09-27T15:50:19.868Z,5.17
2018-09-27T15:52:48.231Z,8.15
2018-09-27T15:55:16.632Z,4.80
2018-09-27T15:57:44.996Z,6.03
2018-09-27T16:00:13.468Z,8.73
2018-09-27T16:02:41.857Z,9.00
2018-09-27T16:05:10.224Z,7.40
2018-09-27T16:07:38.619Z,5.85
2018-09-27T16:10:07.012Z,9.03
2018-09-27T16:12:35.561Z,5.45
2018-09-27T16:15:03.959Z,6.08
2018-09-27T16:17:32.327Z,7.53
2018-09-27T16:20:00.699Z,4.12
2018-09-27T16:22:29.067Z,5.97
2018-09-27T16:24:57.444Z,6.00
2018-09-27T16:27:25.807Z,5.33
2018-09-27T16:29:54.175Z,5.72
2018-09-27T16:32:22.538Z,6.35
2018-09-27T16:34:51.530Z,6.05
2018-09-27T16:37:19.956Z,4.67
2018-09-27T16:39:48.333Z,7.92
2018-09-27T16:42:16.700Z,4.83
2018-09-27T16:44:45.065Z,4.85
2018-09-27T16:47:13.411Z,4.97
2018-09-27T16:49:41.805Z,3.65
2018-09-27T16:52:10.165Z,3.58
2018-09-27T16:54:38.823Z,4.28
2018-09-27T16:57:07.180Z,4.40
2018-09-27T16:59:37.639Z,5.72
2018-09-27T17:02:06.001Z,4.33
2018-09-27T17:04:34.390Z,4.85
2018-09-27T17:07:02.874Z,4.87
2018-09-27T17:09:31.231Z,3.60
2018-09-27T17:11:59.608Z,4.17
2018-09-27T17:14:27.971Z,6.50
2018-09-27T17:16:56.332Z,4.20
2018-09-27T17:19:24.676Z,5.00
2018-09-27T17:21:53.057Z,5.93
2018-09-27T17:24:21.417Z,4.60
2018-09-27T17:26:49.783Z,4.17
2018-09-27T17:29:18.119Z,5.67
2018-09-27T17:31:46.534Z,6.37
2018-09-27T17:34:14.893Z,7.00
2018-09-27T17:36:43.324Z,7.13
2018-09-27T17:39:11.668Z,6.00
2018-09-27T17:41:40.058Z,7.13
2018-09-27T17:44:08.434Z,6.67
2018-09-27T17:46:37.028Z,5.47
2018-09-27T17:49:05.339Z,5.13
2018-09-27T17:51:33.808Z,5.90
2018-09-27T17:54:02.167Z,4.20
2018-09-27T17:56:30.708Z,5.23
2018-09-27T17:58:59.165Z,4.63
2018-09-27T18:01:27.536Z,5.13
2018-09-27T18:03:55.896Z,5.27
2018-09-27T18:06:24.266Z,5.17
2018-09-27T18:08:52.608Z,5.17
2018-09-27T18:11:20.971Z,5.20
2018-09-27T18:13:49.344Z,4.20
2018-09-27T18:16:17.865Z,4.33
2018-09-27T18:18:46.202Z,4.63
2018-09-27T18:21:14.687Z,6.43
2018-09-27T18:23:43.092Z,5.00
2018-09-27T18:26:11.467Z,5.80
2018-09-27T18:28:39.891Z,6.47
2018-09-27T18:31:08.323Z,5.23
2018-09-27T18:33:36.781Z,4.90
2018-09-27T18:36:05.139Z,4.33
2018-09-27T18:38:33.845Z,6.10
2018-09-27T18:41:02.212Z,5.87
2018-09-27T18:43:30.570Z,3.83
2018-09-27T18:46:00.739Z,4.10
2018-09-27T18:48:29.339Z,4.40
2018-09-27T18:50:59.065Z,8.17
2018-09-27T18:53:28.492Z,7.77
2018-09-27T18:55:56.887Z,6.70
2018-09-27T18:58:25.253Z,4.40
2018-09-27T19:00:53.632Z,5.70
2018-09-27T19:03:22.012Z,4.67
2018-09-27T19:05:50.388Z,6.07
2018-09-27T19:08:18.876Z,6.13
2018-09-27T19:10:47.255Z,4.77
2018-09-27T19:13:15.659Z,6.57
2018-09-27T19:15:44.926Z,4.97
2018-09-27T19:18:13.304Z,4.63
2018-09-27T19:20:41.700Z,6.83
2018-09-27T19:23:10.395Z,5.30
2018-09-27T19:25:38.976Z,4.53
2018-09-27T19:28:07.345Z,4.83
2018-09-27T19:30:35.746Z,4.20
2018-09-27T19:33:04.134Z,5.77
2018-09-27T19:35:32.504Z,14.50
2018-09-27T19:38:00.884Z,6.03
2018-09-27T19:40:29.260Z,5.70
2018-09-27T19:42:57.688Z,4.97
2018-09-27T19:45:26.129Z,6.10
2018-09-27T19:47:54.717Z,6.10
2018-09-27T19:50:23.095Z,7.53
2018-09-27T19:52:51.495Z,6.97
2018-09-27T19:55:19.836Z,5.50
2018-09-27T19:57:48.242Z,6.40
2018-09-27T20:00:16.609Z,6.63
2018-09-27T20:02:45.065Z,4.70
2018-09-27T20:05:13.389Z,4.87
2018-09-27T20:07:41.742Z,5.23
2018-09-27T20:10:10.171Z,6.67
2018-09-27T20:12:38.648Z,6.07
2018-09-27T20:15:07.079Z,5.03
2018-09-27T20:17:35.432Z,7.53
2018-09-27T20:20:03.827Z,5.20
2018-09-27T20:22:32.242Z,6.93
2018-09-27T20:25:00.736Z,6.67
2018-09-27T20:27:29.089Z,5.87
2018-09-27T20:29:57.529Z,7.10
2018-09-27T20:32:25.889Z,8.37
2018-09-27T20:34:54.322Z,6.83
2018-09-27T20:37:22.640Z,7.33
2018-09-27T20:39:51.000Z,5.53
2018-09-27T20:42:19.351Z,6.47
2018-09-27T20:44:48.147Z,8.67
2018-09-27T20:47:16.559Z,5.47
2018-09-27T20:49:44.961Z,4.47
2018-09-27T20:52:13.298Z,4.70
2018-09-27T20:54:41.648Z,5.50
2018-09-27T20:57:10.003Z,9.00
2018-09-27T20:59:38.363Z,6.43
2018-09-27T21:02:06.927Z,5.60
2018-09-27T21:04:35.296Z,5.50
2018-09-27T21:07:03.631Z,5.23
2018-09-27T21:09:32.007Z,4.77
2018-09-27T21:12:00.359Z,7.83
2018-09-27T21:14:28.748Z,4.90
2018-09-27T21:16:57.108Z,4.83
2018-09-27T21:19:25.496Z,6.67
2018-09-27T21:21:53.844Z,7.07
2018-09-27T21:24:22.206Z,8.17
2018-09-27T21:26:50.670Z,5.63
2018-09-27T21:29:19.031Z,7.37
2018-09-27T21:31:47.424Z,5.70
2018-09-27T21:34:15.847Z,7.17
2018-09-27T21:36:44.178Z,7.30
2018-09-27T21:39:12.560Z,8.03
2018-09-27T21:41:40.894Z,5.23
2018-09-27T21:44:09.259Z,9.20
2018-09-27T21:46:37.594Z,6.17
2018-09-27T21:49:06.173Z,6.27
2018-09-27T21:51:34.528Z,7.07
2018-09-27T21:54:02.909Z,6.70
2018-09-27T21:56:31.242Z,7.27
2018-09-27T21:58:59.600Z,7.53
2018-09-27T22:01:28.009Z,7.37
2018-09-27T22:03:56.363Z,10.17
2018-09-27T22:06:24.728Z,7.67
2018-09-27T22:08:53.166Z,8.23
2018-09-27T22:11:21.584Z,7.10
2018-09-27T22:13:50.035Z,6.37
2018-09-27T22:16:19.795Z,9.60
2018-09-27T22:18:48.183Z,9.93
2018-09-27T22:21:16.548Z,7.60
2018-09-27T22:23:44.984Z,8.00
2018-09-27T22:26:14.344Z,7.43
2018-09-27T22:28:42.693Z,7.20
2018-09-27T22:31:11.063Z,6.87
2018-09-27T22:33:39.428Z,7.10
2018-09-27T22:36:07.792Z,6.40
2018-09-27T22:38:36.180Z,8.30
2018-09-27T22:41:04.556Z,7.33
2018-09-27T22:43:32.936Z,7.27
2018-09-27T22:46:01.521Z,8.00
2018-09-27T22:48:29.864Z,6.83
2018-09-27T22:50:58.486Z,8.27
2018-09-27T22:53:26.824Z,6.73
2018-09-27T22:55:55.183Z,10.27
2018-09-27T22:58:23.549Z,7.50
2018-09-27T23:00:51.928Z,7.67
2018-09-27T23:03:20.389Z,9.17
2018-09-27T23:05:48.858Z,9.40
2018-09-27T23:08:17.216Z,11.37
2018-09-27T23:10:45.587Z,9.27
2018-09-27T23:13:13.971Z,10.30
2018-09-27T23:15:42.410Z,9.07
2018-09-27T23:18:10.770Z,7.20
2018-09-27T23:20:39.128Z,10.63
2018-09-27T23:23:07.559Z,10.67
2018-09-27T23:25:36.140Z,8.83
2018-09-27T23:28:04.495Z,11.07
2018-09-27T23:30:32.845Z,9.80
2018-09-27T23:33:01.205Z,9.67
2018-09-27T23:35:29.828Z,10.60
2018-09-27T23:37:58.556Z,9.50
2018-09-27T23:40:27.132Z,10.30
2018-09-27T23:42:55.626Z,10.20
2018-09-27T23:45:24.232Z,9.53
2018-09-27T23:47:52.793Z,10.77
2018-09-27T23:50:21.216Z,12.47
2018-09-27T23:52:49.853Z,9.73
2018-09-27T23:55:18.265Z,11.33
2018-09-27T23:57:46.827Z,11.73
